Erie, PA

10:10 AM EDT on July 30, 2015 (GMT -0400)
Erie International | | Change Station
CLOSE
Current Station
Airport
Location: Erie,
Elevation: 738 ft
Nearby Weather Stations
Active Advisory: Beach Hazard Statement

Elev 738 ft 42.08 °N, 80.18 °W | Updated 19 minutes ago

Clear
Clear
77 °F
Feels Like 77 °F
N
10
Wind Variable Wind from West

Today
High -- | Low -- °F
--% Chance of Precip.
Yesterday
High -- | Low -- °F
Precip. -- in
6:11 AM 8:41 PM
Waxing Gibbous, 99% visible
Pressure 29.92 in
Visibility 10.0 miles
Clouds Clear
Dew Point 63 °F
Humidity 62%
Rainfall 0.58 in
Snow Depth Not available.
UV 5 out of 12
Pollen 7.40 out of 12
Air Quality Not available.
Flu Activity Not available.
METAR KERI 301351Z 26009KT 10SM CLR 25/17 A2993 RMK AO2 SLP130 T02500172

More Conditions Fewer Conditions

Pressure 29.92 in
Visibility 10.0 miles
Clouds Clear
Dew Point 63 °F
Humidity 62%
Rainfall 0.58 in
Snow Depth Not available.
UV 5 out of 12
Pollen 7.40 out of 12
Air Quality Not available.
Flu Activity Not available.
METAR KERI 301351Z 26009KT 10SM CLR 25/17 A2993 RMK AO2 SLP130 T02500172

More Conditions Fewer Conditions

10-Day Weather Forecast

×

Almanac

Astronomy

Jul. 30, 2015 Rise Set
Actual Time
Civil Twilight
Nautical Twilight
Astronomical Twilight
Moon
Length of Visible Light
Length of Day
Tomorrow will be .
, % of the Moon is Illuminated

Today's Extremes

State Highs State Lows

Community

WunderPhotos

Upload Photos

1,842,387 photos uploaded!

WunderBlogs® & News

Nearby

Air Quality

  Air Quality AQ Index Pollutant
Not available.

Snow Depth

Station Depth Elevation

Earthquake Activity

City Distance Mag. Time & Date
Minimum magnitude displayed is 2.5.

Coastal Water Temperatures

Place Temperature

Stations

Nearby Weather Stations

Station Location Temp. Windchill Dew Point Humidity Wind Precip. Elev Updated Type
                   
Beach Hazard Statement
Statement as of 9:20 AM EDT on July 30, 2015

... Beach hazards statement now in effect through late tonight...

* hazards... high swimming risk.

* Timing... 10 am through 3 am Friday.

* Location... from Willowick Ohio to Ripley New York.

* Potential impacts..dangerous swimming conditions will occur
from currents and high waves.

Precautionary/preparedness actions...

Swimming risk exists today. The combination of wind and waves
will make for potentially dangerous conditions for swimmers
including the risk of rip currents. Follow the instruction of
local authorities or stay out of the water.